createdAt,value
2018-02-05T00:00:40.364Z,2.55
2018-02-05T00:03:07.925Z,2.50
2018-02-05T00:05:35.422Z,2.75
2018-02-05T00:08:03.141Z,2.67
2018-02-05T00:10:30.739Z,2.70
2018-02-05T00:12:58.346Z,2.20
2018-02-05T00:15:25.900Z,2.20
2018-02-05T00:17:53.491Z,2.53
2018-02-05T00:20:21.047Z,2.35
2018-02-05T00:22:48.579Z,2.17
2018-02-05T00:25:17.126Z,2.25
2018-02-05T00:27:44.758Z,3.12
2018-02-05T00:30:12.335Z,3.35
2018-02-05T00:32:40.082Z,4.20
2018-02-05T00:35:08.344Z,2.72
2018-02-05T00:37:35.912Z,3.95
2018-02-05T00:40:03.467Z,3.03
2018-02-05T00:42:31.166Z,4.07
2018-02-05T00:44:58.771Z,3.72
2018-02-05T00:47:26.375Z,3.58
2018-02-05T00:49:54.138Z,2.92
2018-02-05T00:52:21.681Z,2.90
2018-02-05T00:54:49.190Z,3.35
2018-02-05T00:57:17.481Z,2.67
2018-02-05T00:59:45.084Z,2.90
2018-02-05T01:02:12.847Z,2.53
2018-02-05T01:04:40.582Z,2.85
2018-02-05T01:07:08.250Z,2.70
2018-02-05T01:09:35.769Z,2.62
2018-02-05T01:12:04.085Z,2.42
2018-02-05T01:14:31.605Z,3.15
2018-02-05T01:16:59.260Z,3.72
2018-02-05T01:19:26.814Z,3.08
2018-02-05T01:21:54.399Z,2.85
2018-02-05T01:24:22.026Z,2.92
2018-02-05T01:26:49.540Z,2.67
2018-02-05T01:29:17.108Z,4.07
2018-02-05T01:31:44.908Z,2.60
2018-02-05T01:34:12.540Z,2.53
2018-02-05T01:36:40.001Z,2.70
2018-02-05T01:39:07.536Z,2.83
2018-02-05T01:41:35.136Z,3.87
2018-02-05T01:44:02.738Z,2.67
2018-02-05T01:46:30.305Z,2.53
2018-02-05T01:48:58.721Z,2.10
2018-02-05T01:51:26.242Z,2.90
2018-02-05T01:53:54.588Z,2.95
2018-02-05T01:56:22.521Z,2.37
2018-02-05T01:58:50.095Z,4.18
2018-02-05T02:01:17.771Z,3.85
2018-02-05T02:03:45.342Z,3.10
2018-02-05T02:06:13.055Z,3.90
2018-02-05T02:08:40.830Z,3.87
2018-02-05T02:11:08.792Z,4.50
2018-02-05T02:13:36.504Z,4.22
2018-02-05T02:16:04.074Z,4.03
2018-02-05T02:18:31.616Z,3.58
2018-02-05T02:20:59.162Z,3.97
2018-02-05T02:23:26.986Z,3.60
2018-02-05T02:25:54.562Z,3.45
2018-02-05T02:28:22.213Z,4.62
2018-02-05T02:30:49.783Z,4.07
2018-02-05T02:33:17.338Z,4.18
2018-02-05T02:35:44.931Z,4.05
2018-02-05T02:38:12.503Z,3.70
2018-02-05T02:40:40.106Z,5.87
2018-02-05T02:43:08.560Z,3.60
2018-02-05T02:45:36.207Z,3.70
2018-02-05T02:48:04.649Z,4.55
2018-02-05T02:50:32.204Z,3.62
2018-02-05T02:52:59.785Z,3.30
2018-02-05T02:55:27.539Z,4.18
2018-02-05T02:57:55.122Z,3.75
2018-02-05T03:00:22.695Z,4.37
2018-02-05T03:02:50.231Z,4.18
2018-02-05T03:05:17.740Z,3.85
2018-02-05T03:07:46.187Z,4.43
2018-02-05T03:10:13.701Z,4.47
2018-02-05T03:12:41.378Z,4.82
2018-02-05T03:15:09.538Z,4.07
2018-02-05T03:17:37.048Z,4.00
2018-02-05T03:20:04.691Z,4.65
2018-02-05T03:22:32.261Z,4.40
2018-02-05T03:24:59.826Z,3.33
2018-02-05T03:27:27.643Z,3.87
2018-02-05T03:29:55.237Z,3.80
2018-02-05T03:32:22.818Z,3.58
2018-02-05T03:34:50.433Z,3.53
2018-02-05T03:37:18.029Z,3.50
2018-02-05T03:39:45.966Z,4.15
2018-02-05T03:42:13.488Z,2.90
2018-02-05T03:44:41.750Z,4.10
2018-02-05T03:47:09.284Z,3.65
2018-02-05T03:49:36.883Z,3.50
2018-02-05T03:52:05.329Z,4.05
2018-02-05T03:54:32.799Z,3.92
2018-02-05T03:57:00.334Z,3.20
2018-02-05T03:59:27.889Z,3.67
2018-02-05T04:01:55.474Z,3.75
2018-02-05T04:04:23.061Z,5.12
2018-02-05T04:06:57.081Z,5.12
2018-02-05T04:09:24.661Z,3.87
2018-02-05T04:11:52.195Z,4.37
2018-02-05T04:14:19.779Z,4.22
2018-02-05T04:16:47.270Z,3.67
2018-02-05T04:19:14.805Z,3.55
2018-02-05T04:21:42.441Z,4.25
2018-02-05T04:24:10.704Z,5.35
2018-02-05T04:26:38.358Z,5.22
2018-02-05T04:29:05.877Z,4.20
2018-02-05T04:31:33.556Z,5.03
2018-02-05T04:34:01.098Z,5.28
2018-02-05T04:36:28.623Z,4.65
2018-02-05T04:38:56.920Z,4.93
2018-02-05T04:41:24.544Z,4.85
2018-02-05T04:43:52.929Z,4.30
2018-02-05T04:46:20.430Z,4.95
2018-02-05T04:48:48.156Z,3.95
2018-02-05T04:51:16.438Z,4.00
2018-02-05T04:53:44.751Z,4.90
2018-02-05T04:56:12.212Z,3.55
2018-02-05T04:58:39.793Z,4.60
2018-02-05T05:01:07.786Z,3.50
2018-02-05T05:03:35.393Z,3.45
2018-02-05T05:06:02.956Z,3.72
2018-02-05T05:08:30.542Z,4.03
2018-02-05T05:10:58.108Z,4.25
2018-02-05T05:13:25.671Z,3.92
2018-02-05T05:15:53.292Z,4.47
2018-02-05T05:18:20.899Z,4.30
2018-02-05T05:20:48.423Z,3.30
2018-02-05T05:23:16.272Z,4.55
2018-02-05T05:25:43.784Z,5.07
2018-02-05T05:28:11.501Z,3.20
2018-02-05T05:30:39.046Z,5.80
2018-02-05T05:33:06.734Z,3.00
2018-02-05T05:35:34.193Z,3.62
2018-02-05T05:38:01.794Z,4.87
2018-02-05T05:40:30.705Z,3.70
2018-02-05T05:42:58.247Z,4.00
2018-02-05T05:45:25.799Z,4.15
2018-02-05T05:47:53.334Z,5.45
2018-02-05T05:50:20.986Z,5.80
2018-02-05T05:52:48.542Z,4.95
2018-02-05T05:55:16.092Z,4.20
2018-02-05T05:57:43.603Z,4.70
2018-02-05T06:00:12.012Z,5.32
2018-02-05T06:02:39.562Z,4.18
2018-02-05T06:05:07.060Z,4.97
2018-02-05T06:07:34.589Z,4.85
2018-02-05T06:10:02.190Z,4.90
2018-02-05T06:12:29.733Z,3.80
2018-02-05T06:14:57.303Z,4.45
2018-02-05T06:17:24.871Z,4.25
2018-02-05T06:19:52.365Z,5.95
2018-02-05T06:22:20.730Z,4.22
2018-02-05T06:27:22.155Z,4.65
2018-02-05T06:29:49.856Z,4.20
2018-02-05T06:32:18.143Z,4.85
2018-02-05T06:34:45.848Z,4.15
2018-02-05T06:37:14.560Z,6.10
2018-02-05T06:39:42.145Z,6.20
2018-02-05T06:42:09.597Z,4.53
2018-02-05T06:44:37.199Z,5.43
2018-02-05T06:47:04.840Z,5.03
2018-02-05T06:49:32.379Z,5.25
2018-02-05T06:52:11.724Z,4.95
2018-02-05T06:54:51.124Z,5.53
2018-02-05T06:57:18.973Z,5.90
2018-02-05T06:59:46.561Z,6.05
2018-02-05T07:02:14.158Z,6.07
2018-02-05T07:04:42.508Z,4.80
2018-02-05T07:07:10.098Z,4.53
2018-02-05T07:09:38.479Z,5.70
2018-02-05T07:12:06.180Z,6.10
2018-02-05T07:14:33.879Z,5.78
2018-02-05T07:17:01.406Z,4.18
2018-02-05T07:19:29.066Z,6.60
2018-02-05T07:21:56.579Z,6.05
2018-02-05T07:24:24.286Z,6.40
2018-02-05T07:26:51.910Z,6.62
2018-02-05T07:29:19.485Z,4.50
2018-02-05T07:31:47.116Z,4.78
2018-02-05T07:34:15.485Z,6.35
2018-02-05T07:36:42.983Z,4.72
2018-02-05T07:39:10.516Z,5.68
2018-02-05T07:41:38.939Z,5.45
2018-02-05T07:44:06.486Z,4.47
2018-02-05T07:46:34.030Z,6.60
2018-02-05T07:49:01.533Z,5.85
2018-02-05T07:51:29.104Z,6.37
2018-02-05T07:53:56.944Z,6.60
2018-02-05T07:56:24.583Z,6.30
2018-02-05T07:58:52.990Z,6.60
2018-02-05T08:01:20.648Z,5.85
2018-02-05T08:03:48.210Z,5.95
2018-02-05T08:06:15.782Z,5.75
2018-02-05T08:08:44.048Z,6.10
2018-02-05T08:11:11.561Z,5.70
2018-02-05T08:13:39.980Z,6.90
2018-02-05T08:16:07.490Z,6.28
2018-02-05T08:18:35.044Z,6.75
2018-02-05T08:21:02.716Z,6.80
2018-02-05T08:23:30.334Z,6.28
2018-02-05T08:25:57.998Z,6.47
2018-02-05T08:28:25.552Z,6.18
2018-02-05T08:30:53.103Z,6.65
2018-02-05T08:33:20.741Z,6.70
2018-02-05T08:35:49.304Z,6.18
2018-02-05T08:38:18.375Z,6.12
2018-02-05T08:40:46.113Z,6.57
2018-02-05T08:43:13.606Z,6.93
2018-02-05T08:45:41.158Z,7.80
2018-02-05T08:48:08.710Z,6.45
2018-02-05T08:50:36.304Z,7.20
2018-02-05T08:53:03.883Z,7.85
2018-02-05T08:55:31.518Z,7.35
2018-02-05T08:57:59.139Z,5.97
2018-02-05T09:00:26.809Z,6.12
2018-02-05T09:02:54.362Z,8.30
2018-02-05T09:05:21.969Z,6.62
2018-02-05T09:07:50.310Z,7.68
2018-02-05T09:10:18.032Z,8.25
2018-02-05T09:12:45.590Z,7.70
2018-02-05T09:15:13.113Z,9.27
2018-02-05T09:17:40.668Z,6.70
2018-02-05T09:20:08.278Z,6.85
2018-02-05T09:22:35.793Z,5.85
2018-02-05T09:25:03.527Z,5.85
2018-02-05T09:27:31.448Z,7.37
2018-02-05T09:29:58.899Z,6.00
2018-02-05T09:32:27.216Z,5.75
2018-02-05T09:34:54.748Z,7.37
2018-02-05T09:37:23.046Z,7.60
2018-02-05T09:39:50.609Z,7.80
2018-02-05T09:42:18.151Z,6.70
2018-02-05T09:44:46.471Z,7.55
2018-02-05T09:47:14.007Z,8.50
2018-02-05T09:49:41.678Z,6.70
2018-02-05T09:52:09.223Z,7.03
2018-02-05T09:54:36.784Z,7.95
2018-02-05T09:57:04.343Z,9.23
2018-02-05T09:59:31.889Z,8.15
2018-02-05T10:01:59.582Z,8.35
2018-02-05T10:04:27.253Z,8.57
2018-02-05T10:06:54.847Z,6.60
2018-02-05T10:09:22.334Z,7.20
2018-02-05T10:11:50.134Z,7.50
2018-02-05T10:14:17.694Z,8.30
2018-02-05T10:16:45.239Z,6.95
2018-02-05T10:19:12.802Z,8.60
2018-02-05T10:21:40.383Z,7.78
2018-02-05T10:24:07.922Z,7.22
2018-02-05T10:26:35.464Z,9.40
2018-02-05T10:29:03.266Z,5.20
2018-02-05T10:31:30.819Z,6.75
2018-02-05T10:33:58.413Z,9.27
2018-02-05T10:36:26.754Z,7.80
2018-02-05T10:38:54.309Z,4.90
2018-02-05T10:41:21.983Z,8.98
2018-02-05T10:43:49.516Z,8.45
2018-02-05T10:46:17.304Z,9.05
2018-02-05T10:48:44.878Z,7.95
2018-02-05T10:51:12.367Z,6.90
2018-02-05T10:53:39.956Z,8.43
2018-02-05T10:56:07.645Z,7.57
2018-02-05T10:58:35.154Z,7.28
2018-02-05T11:01:02.760Z,6.65
2018-02-05T11:03:30.414Z,8.98
2018-02-05T11:05:57.968Z,7.62
2018-02-05T11:08:25.468Z,8.70
2018-02-05T11:10:53.048Z,6.45
2018-02-05T11:13:20.757Z,7.05
2018-02-05T11:15:48.327Z,6.82
2018-02-05T11:18:15.912Z,7.97
2018-02-05T11:20:43.494Z,6.97
2018-02-05T11:23:11.102Z,8.32
2018-02-05T11:25:38.679Z,7.60
2018-02-05T11:28:06.226Z,8.13
2018-02-05T11:30:33.764Z,8.95
2018-02-05T11:33:01.305Z,10.27
2018-02-05T11:35:29.621Z,7.25
2018-02-05T11:37:57.405Z,7.22
2018-02-05T11:40:24.976Z,7.85
2018-02-05T11:42:52.520Z,7.72
2018-02-05T11:45:20.067Z,8.85
2018-02-05T11:47:47.752Z,8.82
2018-02-05T11:50:15.324Z,8.45
2018-02-05T11:52:43.138Z,7.78
2018-02-05T11:55:10.718Z,6.40
2018-02-05T11:57:38.306Z,6.45
2018-02-05T12:00:05.893Z,7.97
2018-02-05T12:02:33.463Z,7.95
2018-02-05T12:05:00.945Z,7.62
2018-02-05T12:07:29.372Z,6.40
2018-02-05T12:09:56.947Z,6.65
2018-02-05T12:12:25.260Z,6.75
2018-02-05T12:14:52.880Z,8.35
2018-02-05T12:17:20.384Z,7.82
2018-02-05T12:19:47.981Z,6.93
2018-02-05T12:22:17.045Z,11.85
2018-02-05T12:24:44.600Z,7.30
2018-02-05T12:27:12.134Z,8.18
2018-02-05T12:29:39.700Z,5.93
2018-02-05T12:32:07.314Z,7.60
2018-02-05T12:34:34.916Z,8.38
2018-02-05T12:37:02.506Z,8.27
2018-02-05T12:39:30.070Z,7.15
2018-02-05T12:41:57.691Z,8.05
2018-02-05T12:44:25.251Z,5.68
2018-02-05T12:46:53.133Z,7.40
2018-02-05T12:49:20.906Z,7.97
2018-02-05T12:51:48.468Z,7.32
2018-02-05T12:54:16.121Z,7.37
2018-02-05T12:56:43.639Z,7.85
2018-02-05T12:59:11.109Z,6.72
2018-02-05T13:01:45.074Z,7.35
2018-02-05T13:04:29.308Z,8.43
2018-02-05T13:06:56.787Z,6.78
2018-02-05T13:11:58.169Z,5.43
2018-02-05T13:14:26.626Z,9.50
2018-02-05T13:16:56.158Z,6.60
2018-02-05T13:19:23.721Z,6.80
2018-02-05T13:21:51.175Z,6.28
2018-02-05T13:24:18.795Z,6.65
2018-02-05T13:26:46.460Z,6.93
2018-02-05T13:29:14.002Z,6.12
2018-02-05T13:31:41.574Z,6.68
2018-02-05T13:34:09.121Z,8.30
2018-02-05T13:36:36.696Z,4.10
2018-02-05T13:39:04.237Z,6.93
2018-02-05T13:41:31.755Z,7.25
2018-02-05T13:43:59.683Z,6.60
2018-02-05T13:46:27.238Z,5.50
2018-02-05T13:48:54.940Z,6.03
2018-02-05T13:51:22.568Z,5.95
2018-02-05T13:53:50.142Z,6.70
2018-02-05T13:56:17.784Z,7.80
2018-02-05T13:58:45.401Z,7.07
2018-02-05T14:01:12.946Z,6.53
2018-02-05T14:03:40.479Z,7.05
2018-02-05T14:06:08.141Z,7.28
2018-02-05T14:08:35.725Z,7.20
2018-02-05T14:11:03.295Z,6.75
2018-02-05T14:13:31.044Z,4.87
2018-02-05T14:15:58.601Z,6.45
2018-02-05T14:18:26.336Z,6.72
2018-02-05T14:20:55.092Z,7.12
2018-02-05T14:23:23.384Z,7.97
2018-02-05T14:25:50.938Z,8.25
2018-02-05T14:28:18.458Z,8.15
2018-02-05T14:30:46.015Z,7.28
2018-02-05T14:33:14.181Z,5.22
2018-02-05T14:35:41.811Z,5.40
2018-02-05T14:38:10.353Z,8.50
2018-02-05T14:40:37.921Z,5.65
2018-02-05T14:43:05.490Z,6.75
2018-02-05T14:45:33.806Z,7.03
2018-02-05T14:48:01.539Z,5.43
2018-02-05T14:50:29.123Z,5.80
2018-02-05T14:52:56.882Z,6.43
2018-02-05T14:55:24.528Z,5.62
2018-02-05T14:57:52.147Z,6.35
2018-02-05T15:00:19.686Z,5.05
2018-02-05T15:02:47.235Z,5.25
2018-02-05T15:05:14.792Z,5.93
2018-02-05T15:07:42.320Z,6.80
2018-02-05T15:10:10.590Z,8.70
2018-02-05T15:12:38.915Z,6.82
2018-02-05T15:15:06.480Z,5.85
2018-02-05T15:17:34.016Z,8.55
2018-02-05T15:20:01.582Z,5.87
2018-02-05T15:22:29.242Z,4.80
2018-02-05T15:24:56.806Z,7.25
2018-02-05T15:27:24.336Z,6.97
2018-02-05T15:29:51.806Z,6.05
2018-02-05T15:32:19.410Z,8.23
2018-02-05T15:34:46.957Z,5.57
2018-02-05T15:37:14.535Z,6.47
2018-02-05T15:39:42.055Z,6.03
2018-02-05T15:42:09.598Z,6.85
2018-02-05T15:44:37.918Z,7.15
2018-02-05T15:47:05.578Z,7.18
2018-02-05T15:49:33.104Z,5.78
2018-02-05T15:52:00.836Z,6.37
2018-02-05T15:54:29.247Z,7.65
2018-02-05T15:56:57.376Z,7.20
2018-02-05T15:59:24.957Z,6.90
2018-02-05T16:01:52.523Z,7.15
2018-02-05T16:04:20.103Z,7.72
2018-02-05T16:06:47.655Z,6.43
2018-02-05T16:09:15.284Z,6.18
2018-02-05T16:11:43.593Z,7.87
2018-02-05T16:14:11.171Z,5.32
2018-02-05T16:16:38.728Z,6.57
2018-02-05T16:19:06.530Z,5.70
2018-02-05T16:21:34.029Z,6.43
2018-02-05T16:24:02.358Z,6.00
2018-02-05T16:26:30.529Z,5.80
2018-02-05T16:28:58.097Z,5.78
2018-02-05T16:31:25.700Z,6.18
2018-02-05T16:33:54.131Z,6.25
2018-02-05T16:36:21.735Z,6.80
2018-02-05T16:38:49.309Z,6.65
2018-02-05T16:41:16.874Z,6.40
2018-02-05T16:43:45.029Z,6.40
2018-02-05T16:46:13.368Z,7.60
2018-02-05T16:48:40.991Z,6.68
2018-02-05T16:51:08.907Z,7.32
2018-02-05T16:53:36.636Z,5.40
2018-02-05T16:56:04.253Z,6.80
2018-02-05T16:58:31.854Z,7.18
2018-02-05T17:00:59.507Z,7.80
2018-02-05T17:03:27.037Z,7.30
2018-02-05T17:05:54.801Z,7.65
2018-02-05T17:08:23.178Z,6.70
2018-02-05T17:10:51.593Z,6.62
2018-02-05T17:13:19.131Z,7.30
2018-02-05T17:15:46.698Z,6.20
2018-02-05T17:18:14.380Z,7.72
2018-02-05T17:20:42.014Z,6.78
2018-02-05T17:23:09.509Z,6.65
2018-02-05T17:25:37.177Z,7.53
2018-02-05T17:28:04.785Z,7.18
2018-02-05T17:30:32.867Z,8.20
2018-02-05T17:33:00.451Z,7.00
2018-02-05T17:35:27.983Z,8.68
2018-02-05T17:37:55.518Z,6.93
2018-02-05T17:40:23.854Z,6.93
2018-02-05T17:42:51.347Z,9.55
2018-02-05T17:45:18.867Z,7.37
2018-02-05T17:47:46.464Z,8.95
2018-02-05T17:50:14.081Z,7.10
2018-02-05T17:52:41.696Z,7.47
2018-02-05T17:55:09.645Z,8.02
2018-02-05T17:57:37.183Z,8.85
2018-02-05T18:00:04.804Z,8.25
2018-02-05T18:02:33.153Z,6.45
2018-02-05T18:05:00.853Z,7.75
2018-02-05T18:07:29.168Z,7.05
2018-02-05T18:09:56.790Z,7.22
2018-02-05T18:12:24.418Z,6.68
2018-02-05T18:14:51.889Z,7.05
2018-02-05T18:17:20.015Z,7.70
2018-02-05T18:19:47.686Z,6.85
2018-02-05T18:22:15.217Z,7.80
2018-02-05T18:24:42.724Z,8.35
2018-02-05T18:27:10.677Z,5.65
2018-02-05T18:29:38.225Z,8.38
2018-02-05T18:32:06.040Z,7.78
2018-02-05T18:34:33.619Z,9.02
2018-02-05T18:37:01.957Z,9.05
2018-02-05T18:39:29.532Z,8.02
2018-02-05T18:41:57.176Z,8.70
2018-02-05T18:44:24.742Z,9.25
2018-02-05T18:46:52.285Z,7.93
2018-02-05T18:49:19.851Z,9.15
2018-02-05T18:51:47.426Z,7.72
2018-02-05T18:54:15.139Z,10.98
2018-02-05T18:56:44.473Z,9.82
2018-02-05T18:59:12.137Z,7.65
2018-02-05T19:01:39.706Z,7.40
2018-02-05T19:04:07.336Z,6.90
2018-02-05T19:06:34.937Z,9.98
2018-02-05T19:09:02.506Z,9.25
2018-02-05T19:11:30.030Z,9.43
2018-02-05T19:13:57.557Z,9.60
2018-02-05T19:16:25.133Z,8.65
2018-02-05T19:18:52.811Z,7.10
2018-02-05T19:21:20.383Z,7.40
2018-02-05T19:23:47.920Z,8.43
2018-02-05T19:26:15.580Z,11.60
2018-02-05T19:28:43.091Z,8.82
2018-02-05T19:31:11.419Z,8.75
2018-02-05T19:33:39.091Z,8.73
2018-02-05T19:36:06.679Z,8.93
2018-02-05T19:38:34.233Z,9.45
2018-02-05T19:41:02.171Z,7.93
2018-02-05T19:43:29.883Z,7.47
2018-02-05T19:45:59.153Z,7.75
2018-02-05T19:48:26.621Z,8.60
2018-02-05T19:50:54.177Z,8.80
2018-02-05T19:53:21.697Z,7.70
2018-02-05T19:55:49.254Z,8.15
2018-02-05T19:58:16.826Z,7.35
2018-02-05T20:00:44.312Z,8.55
2018-02-05T20:03:11.893Z,7.03
2018-02-05T20:05:39.504Z,5.53
2018-02-05T20:08:07.074Z,6.87
2018-02-05T20:10:35.436Z,7.62
2018-02-05T20:13:02.964Z,8.73
2018-02-05T20:15:30.552Z,10.23
2018-02-05T20:17:58.134Z,8.13
2018-02-05T20:20:25.671Z,8.48
2018-02-05T20:22:53.193Z,6.62
2018-02-05T20:25:20.789Z,8.45
2018-02-05T20:27:48.306Z,7.35
2018-02-05T20:30:16.014Z,7.30
2018-02-05T20:32:43.520Z,9.85
2018-02-05T20:35:11.220Z,9.50
2018-02-05T20:37:38.855Z,6.25
2018-02-05T20:40:06.484Z,9.25
2018-02-05T20:42:34.123Z,7.57
2018-02-05T20:45:02.085Z,7.03
2018-02-05T20:47:32.435Z,10.00
2018-02-05T20:50:00.055Z,10.32
2018-02-05T20:52:27.892Z,10.60
2018-02-05T20:54:55.927Z,11.80
2018-02-05T20:57:23.488Z,8.02
2018-02-05T20:59:51.199Z,9.68
2018-02-05T21:02:18.750Z,8.18
2018-02-05T21:04:46.773Z,8.73
2018-02-05T21:07:14.352Z,11.18
2018-02-05T21:09:41.988Z,9.13
2018-02-05T21:12:09.686Z,8.77
2018-02-05T21:14:37.200Z,9.20
2018-02-05T21:17:04.779Z,7.03
2018-02-05T21:19:32.542Z,8.60
2018-02-05T21:22:00.211Z,8.80
2018-02-05T21:24:27.730Z,9.13
2018-02-05T21:26:55.276Z,9.32
2018-02-05T21:29:22.851Z,9.05
2018-02-05T21:31:51.182Z,9.73
2018-02-05T21:34:18.774Z,10.13
2018-02-05T21:36:46.397Z,8.13
2018-02-05T21:39:13.957Z,9.10
2018-02-05T21:41:41.622Z,10.15
2018-02-05T21:44:09.168Z,8.60
2018-02-05T21:46:36.779Z,10.05
2018-02-05T21:49:04.448Z,10.15
2018-02-05T21:51:32.114Z,11.02
2018-02-05T21:53:59.609Z,9.10
2018-02-05T21:56:27.114Z,10.23
2018-02-05T21:58:55.439Z,8.95
2018-02-05T22:01:23.005Z,8.98
2018-02-05T22:03:51.168Z,8.57
2018-02-05T22:06:18.686Z,9.77
2018-02-05T22:08:46.317Z,9.55
2018-02-05T22:11:13.880Z,9.15
2018-02-05T22:13:41.405Z,11.25
2018-02-05T22:16:09.024Z,9.02
2018-02-05T22:18:36.603Z,9.75
2018-02-05T22:21:04.213Z,9.70
2018-02-05T22:23:31.772Z,9.23
2018-02-05T22:25:59.365Z,8.75
2018-02-05T22:28:26.984Z,9.35
2018-02-05T22:30:54.598Z,10.02
2018-02-05T22:33:22.265Z,9.05
2018-02-05T22:35:50.599Z,9.27
2018-02-05T22:38:18.163Z,9.63
2018-02-05T22:40:45.695Z,9.20
2018-02-05T22:43:13.319Z,10.30
2018-02-05T22:45:41.695Z,8.63
2018-02-05T22:48:11.031Z,10.98
2018-02-05T22:50:38.584Z,10.65
2018-02-05T22:53:06.174Z,8.63
2018-02-05T22:55:33.724Z,9.85
2018-02-05T22:58:01.262Z,8.85
2018-02-05T23:00:28.799Z,7.78
2018-02-05T23:02:56.358Z,8.35
2018-02-05T23:05:24.706Z,9.40
2018-02-05T23:07:52.293Z,8.63
2018-02-05T23:10:20.611Z,10.70
2018-02-05T23:12:48.189Z,10.32
2018-02-05T23:15:15.755Z,8.40
2018-02-05T23:17:43.333Z,11.30
2018-02-05T23:20:10.947Z,9.82
2018-02-05T23:22:38.581Z,10.00
2018-02-05T23:25:07.114Z,8.93
2018-02-05T23:27:34.751Z,9.80
2018-02-05T23:30:02.317Z,10.73
2018-02-05T23:32:29.876Z,9.65
2018-02-05T23:34:57.452Z,10.95
2018-02-05T23:37:25.767Z,11.12
2018-02-05T23:39:54.083Z,9.98
2018-02-05T23:42:21.747Z,9.77
2018-02-05T23:44:49.258Z,11.95
2018-02-05T23:47:16.885Z,11.23
2018-02-05T23:49:44.443Z,9.25
2018-02-05T23:52:12.031Z,11.80
2018-02-05T23:54:39.674Z,9.35
2018-02-05T23:57:07.518Z,9.27
2018-02-05T23:59:35.036Z,11.73
